createdAt,value
2022-08-17T10:41:42.193Z,92.00
2022-08-17T10:44:50.907Z,92.10
2022-08-17T10:47:21.965Z,92.60
2022-08-17T10:49:57.643Z,92.70
2022-08-17T10:52:47.599Z,92.20
2022-08-17T10:55:20.735Z,92.40
2022-08-17T10:57:52.086Z,92.60
2022-08-17T11:00:56.451Z,92.90
2022-08-17T11:03:29.272Z,93.00
2022-08-17T11:06:24.080Z,92.70
2022-08-17T11:09:32.878Z,92.50
2022-08-17T11:12:42.400Z,92.20
2022-08-17T11:15:52.257Z,92.30
2022-08-17T11:18:52.477Z,92.30
2022-08-17T11:21:52.173Z,92.50
2022-08-17T11:24:53.987Z,92.60
2022-08-17T11:27:36.074Z,93.00
2022-08-17T11:30:14.768Z,93.20
2022-08-17T11:32:54.641Z,93.40
2022-08-17T11:35:46.755Z,93.50
2022-08-17T11:38:48.448Z,93.60
2022-08-17T11:41:47.206Z,93.80
2022-08-17T11:44:32.918Z,94.00
2022-08-17T11:48:26.448Z,94.30
2022-08-17T11:51:40.599Z,94.40
2022-08-17T11:54:41.793Z,94.70
2022-08-17T11:57:50.737Z,94.90
2022-08-17T12:00:59.185Z,95.10
2022-08-17T12:03:53.826Z,95.20
2022-08-17T12:06:56.508Z,95.30
2022-08-17T12:09:34.157Z,95.40
2022-08-17T12:12:19.923Z,95.50
2022-08-17T12:17:43.155Z,95.90
2022-08-17T12:20:37.333Z,96.50
2022-08-17T12:23:32.830Z,96.60
2022-08-17T12:26:13.740Z,97.50
2022-08-17T12:28:51.708Z,97.40
2022-08-17T12:31:23.973Z,98.00
2022-08-17T12:33:54.362Z,98.10
2022-08-17T12:36:30.056Z,98.20
2022-08-17T12:39:14.139Z,98.20
2022-08-17T12:41:50.298Z,98.40
2022-08-17T12:44:24.838Z,98.40
2022-08-17T12:47:22.319Z,98.30
2022-08-17T12:49:55.655Z,98.60
2022-08-17T12:52:31.418Z,98.40
2022-08-17T12:55:14.844Z,98.50
2022-08-17T12:57:49.818Z,98.60
2022-08-17T13:00:47.401Z,98.80
2022-08-17T13:03:25.036Z,98.90
2022-08-17T13:06:13.637Z,99.10
2022-08-17T13:08:47.179Z,99.20
2022-08-17T13:11:26.895Z,99.30
2022-08-17T13:13:58.317Z,99.30
2022-08-17T13:16:33.136Z,99.50
2022-08-17T13:19:20.513Z,99.70
2022-08-17T13:22:14.384Z,99.70
2022-08-17T13:24:56.147Z,99.80
2022-08-17T13:27:28.332Z,99.80
2022-08-17T13:30:07.150Z,99.80
2022-08-17T13:32:45.158Z,99.80
2022-08-17T13:35:41.989Z,99.90
2022-08-17T13:38:19.266Z,99.90
2022-08-17T13:40:54.684Z,99.90
2022-08-17T13:43:48.926Z,99.90
2022-08-17T13:46:29.087Z,99.90
2022-08-17T13:49:06.398Z,99.90
2022-08-17T13:51:43.568Z,99.90
2022-08-17T13:54:37.185Z,99.90
2022-08-17T13:57:14.787Z,99.90
2022-08-17T13:59:54.785Z,99.90
2022-08-17T14:02:28.806Z,99.90
2022-08-17T14:05:00.648Z,99.90
2022-08-17T14:07:36.993Z,99.90
2022-08-17T14:10:17.045Z,99.90
2022-08-17T14:12:47.703Z,99.90
2022-08-17T14:15:22.207Z,99.90
2022-08-17T14:17:52.815Z,99.90
2022-08-17T14:20:24.472Z,99.90
2022-08-17T14:22:57.530Z,99.90
2022-08-17T14:25:31.299Z,99.90
2022-08-17T14:28:01.103Z,99.90
2022-08-17T14:30:31.069Z,99.90
2022-08-17T14:33:03.755Z,99.90
2022-08-17T14:35:33.414Z,99.90
2022-08-17T14:38:03.906Z,99.90
2022-08-17T14:40:35.047Z,99.90
2022-08-17T14:43:04.957Z,99.90
2022-08-17T14:45:35.468Z,99.90
2022-08-17T14:48:10.373Z,99.90
2022-08-17T14:50:42.937Z,99.90
2022-08-17T14:53:15.579Z,99.90
2022-08-17T14:55:47.525Z,99.90
2022-08-17T14:58:18.380Z,99.90
2022-08-17T15:00:48.247Z,99.90
2022-08-17T15:03:20.140Z,99.90
2022-08-17T15:05:50.274Z,99.90
2022-08-17T15:08:20.260Z,99.90
2022-08-17T15:10:54.401Z,99.90
2022-08-17T15:13:26.759Z,99.90
2022-08-17T15:15:57.888Z,99.90
2022-08-17T15:18:27.621Z,99.90
2022-08-17T15:20:57.351Z,99.90
2022-08-17T15:23:28.659Z,99.90
2022-08-17T15:25:58.250Z,99.90
2022-08-17T15:28:31.424Z,99.90
2022-08-17T15:31:02.309Z,99.90
2022-08-17T15:33:32.809Z,99.90
2022-08-17T15:36:06.130Z,99.90
2022-08-17T15:38:41.107Z,99.90
2022-08-17T15:41:17.160Z,99.90
2022-08-17T15:43:51.530Z,99.90
2022-08-17T15:46:24.876Z,99.90
2022-08-17T15:49:00.910Z,99.90
2022-08-17T15:51:36.867Z,99.90
2022-08-17T15:54:19.067Z,99.90
2022-08-17T15:56:54.691Z,99.90
2022-08-17T15:59:24.355Z,99.90
2022-08-17T16:03:15.986Z,99.90
2022-08-17T16:04:46.222Z,99.90
2022-08-17T16:07:26.710Z,99.90
2022-08-17T16:09:59.830Z,99.90
2022-08-17T16:12:29.647Z,99.90
2022-08-17T16:14:59.427Z,99.90
2022-08-17T16:17:39.573Z,99.90
2022-08-17T16:20:20.097Z,99.90
2022-08-17T16:22:52.291Z,99.90
2022-08-17T16:25:50.398Z,99.90
2022-08-17T16:28:30.889Z,99.90
2022-08-17T16:31:08.006Z,99.90
2022-08-17T16:33:41.216Z,99.90
2022-08-17T16:36:12.686Z,99.90
2022-08-17T16:38:42.318Z,99.90
2022-08-17T16:41:14.366Z,99.90
2022-08-17T16:43:47.219Z,99.90
2022-08-17T16:46:16.934Z,99.90
2022-08-17T16:48:48.195Z,99.90
2022-08-17T16:51:17.786Z,99.90
2022-08-17T16:53:47.366Z,99.90
2022-08-17T16:56:28.406Z,99.90
2022-08-17T16:58:57.987Z,99.90
2022-08-17T17:01:44.980Z,99.90
2022-08-17T17:04:19.334Z,99.90
2022-08-17T17:07:18.899Z,99.90
2022-08-17T17:09:54.132Z,99.90
2022-08-17T17:13:00.933Z,99.90
2022-08-17T17:15:17.609Z,99.90
2022-08-17T17:17:53.909Z,99.90
2022-08-17T17:20:31.356Z,99.90
2022-08-17T17:23:20.256Z,99.90
2022-08-17T17:26:05.254Z,99.90
2022-08-17T17:28:57.814Z,99.90
2022-08-17T17:31:33.600Z,99.90
2022-08-17T17:34:06.487Z,99.90
2022-08-17T17:36:48.849Z,99.90
2022-08-17T17:39:22.575Z,99.90
2022-08-17T17:41:58.394Z,99.90
2022-08-17T17:44:35.078Z,99.90
2022-08-17T17:47:05.817Z,99.90
2022-08-17T17:49:40.476Z,99.90
2022-08-17T17:52:42.667Z,99.90
2022-08-17T17:55:51.435Z,99.90
2022-08-17T17:58:55.567Z,99.90
2022-08-17T18:01:52.326Z,99.90
2022-08-17T18:04:43.098Z,99.90
2022-08-17T18:07:37.031Z,99.90
2022-08-17T18:10:30.134Z,99.90
2022-08-17T18:13:37.050Z,99.90
2022-08-17T18:16:12.548Z,99.90
2022-08-17T18:18:46.407Z,99.90
2022-08-17T18:21:21.940Z,99.90
2022-08-17T18:23:56.680Z,99.90
2022-08-17T18:26:56.828Z,99.90
2022-08-17T18:29:38.878Z,99.90
2022-08-17T18:32:36.144Z,99.90
2022-08-17T18:35:29.971Z,99.90
2022-08-17T18:38:20.248Z,99.90
2022-08-17T18:41:01.038Z,99.90
2022-08-17T18:43:44.064Z,99.90
2022-08-17T18:46:32.047Z,99.90
2022-08-17T18:49:08.463Z,99.90
2022-08-17T18:51:44.727Z,99.90
2022-08-17T18:54:26.608Z,99.90
2022-08-17T18:57:01.357Z,99.90
2022-08-17T18:59:50.652Z,99.90
2022-08-17T19:02:43.873Z,99.90
2022-08-17T19:05:38.640Z,99.90
2022-08-17T19:08:37.816Z,99.90
2022-08-17T19:11:36.047Z,99.90
2022-08-17T19:14:11.959Z,99.90
2022-08-17T19:16:57.386Z,99.90
2022-08-17T19:19:51.482Z,99.90
2022-08-17T19:22:31.037Z,99.90
2022-08-17T19:25:22.680Z,99.90
2022-08-17T19:28:22.521Z,99.90
2022-08-17T19:30:58.824Z,99.90
2022-08-17T19:33:28.808Z,99.90
2022-08-17T19:36:32.419Z,99.90
2022-08-17T19:39:42.961Z,99.90
2022-08-17T19:42:51.309Z,99.90
2022-08-17T19:45:50.713Z,99.90
2022-08-17T19:48:59.468Z,99.90
2022-08-17T19:51:54.179Z,99.90
2022-08-17T19:54:46.299Z,99.90
2022-08-17T19:57:55.109Z,99.90
2022-08-17T20:00:24.837Z,99.90
2022-08-17T20:03:16.420Z,99.90
2022-08-17T20:06:12.458Z,99.90
2022-08-17T20:09:05.601Z,99.90
2022-08-17T20:11:48.525Z,99.90
2022-08-17T20:14:23.147Z,99.90
2022-08-17T20:16:53.396Z,99.90
2022-08-17T20:19:38.838Z,99.90
2022-08-17T20:22:22.795Z,99.90
2022-08-17T20:25:17.084Z,99.90
2022-08-17T20:28:08.378Z,99.90
2022-08-17T20:30:44.296Z,99.90
2022-08-17T20:33:39.007Z,99.90
2022-08-17T20:36:23.282Z,99.90
2022-08-17T20:39:00.872Z,99.90
2022-08-17T20:41:32.495Z,99.90
2022-08-17T20:44:07.204Z,99.90
2022-08-17T20:46:58.748Z,99.90
2022-08-17T20:49:55.315Z,99.90
2022-08-17T20:52:48.605Z,99.90
2022-08-17T20:55:53.567Z,99.90
2022-08-17T20:58:48.212Z,99.90
2022-08-17T21:01:26.010Z,99.90
2022-08-17T21:03:57.717Z,99.90
2022-08-17T21:06:27.919Z,99.90
2022-08-17T21:09:31.550Z,99.90
2022-08-17T21:12:05.637Z,99.90
2022-08-17T21:15:03.263Z,99.90
2022-08-17T21:17:53.454Z,99.90
2022-08-17T21:20:44.869Z,99.90
2022-08-17T21:23:31.389Z,99.90
2022-08-17T21:26:32.650Z,99.90
2022-08-17T21:29:31.286Z,99.90
2022-08-17T21:32:21.816Z,99.90
2022-08-17T21:35:31.735Z,99.90
2022-08-17T21:38:16.863Z,99.90
2022-08-17T21:40:51.597Z,99.90
2022-08-17T21:43:35.930Z,99.90
2022-08-17T21:46:22.579Z,99.90
2022-08-17T21:48:54.515Z,99.90
2022-08-17T21:51:30.950Z,99.90
2022-08-17T21:54:05.460Z,99.90
2022-08-17T21:56:41.549Z,99.90
2022-08-17T21:59:27.767Z,99.90
2022-08-17T22:02:04.022Z,99.90
2022-08-17T22:04:38.468Z,99.90
2022-08-17T22:07:14.287Z,99.90
2022-08-17T22:09:47.501Z,99.90
2022-08-17T22:12:22.986Z,99.90
2022-08-17T22:15:08.939Z,99.90
2022-08-17T22:17:47.867Z,99.90
2022-08-17T22:20:22.471Z,99.90
2022-08-17T22:23:35.097Z,99.90
2022-08-17T22:26:09.604Z,99.90
2022-08-17T22:28:51.449Z,99.90
2022-08-17T22:31:26.889Z,99.90
2022-08-17T22:34:16.050Z,99.90
2022-08-17T22:36:45.800Z,99.90
2022-08-17T22:39:42.434Z,99.90
2022-08-17T22:42:17.027Z,99.90
2022-08-17T22:44:52.178Z,99.90
2022-08-17T22:47:33.128Z,99.90
2022-08-17T22:50:14.275Z,99.90
2022-08-17T22:53:06.915Z,99.90
2022-08-17T22:55:56.638Z,99.90
2022-08-17T22:58:59.247Z,99.90
2022-08-17T23:01:34.019Z,99.90
2022-08-17T23:04:09.376Z,99.90
2022-08-17T23:06:41.228Z,99.90
2022-08-17T23:09:11.539Z,99.90
2022-08-17T23:11:50.250Z,99.90
2022-08-17T23:14:22.368Z,99.90
2022-08-17T23:16:52.598Z,99.90
2022-08-17T23:19:23.730Z,99.90
2022-08-17T23:21:54.212Z,99.90
2022-08-17T23:24:27.528Z,99.90
2022-08-17T23:26:59.797Z,99.90
2022-08-17T23:29:30.960Z,99.90
2022-08-17T23:32:02.890Z,99.90
2022-08-17T23:34:32.848Z,99.90
2022-08-17T23:37:03.839Z,99.90
2022-08-17T23:39:33.687Z,99.90
2022-08-17T23:42:09.489Z,99.90
2022-08-17T23:44:40.759Z,99.90
2022-08-17T23:47:10.590Z,99.90
2022-08-17T23:49:40.763Z,99.90
2022-08-17T23:52:15.364Z,99.90
2022-08-17T23:54:49.015Z,99.90
2022-08-17T23:57:33.927Z,99.90
